Terminal Aerodrome Forecast
Issued by NWS

Home | Current Version | Previous Version | Text Only | Print | Product List | Glossary On
Versions: 1 2 3 4 5 6 7 8 9 10 11 12
000
FTUS45 KABQ 291740
TAFTCC
TAF
KTCC 291740Z 2918/3018 06008KT P6SM SCT070 BKN100
      TEMPO 2918/2920 VRB11G18KT -SHRA OVC060
     FM292000 11010KT P6SM VCTS SCT050CB BKN110
      TEMPO 2920/2923 VRB17G28KT 5SM TSRA BKN040CB OVC090
     FM300000 07007KT P6SM VCSH SCT050 BKN100
     FM300500 05006KT P6SM SCT045 BKN090=

USA.gov is the U.S. government's official web portal to all federal, state and local government web resources and services.